createdAt,value
2022-08-11T00:02:00.139Z,18.60
2022-08-11T00:04:27.665Z,18.60
2022-08-11T00:06:55.259Z,18.50
2022-08-11T00:09:31.704Z,18.50
2022-08-11T00:12:16.899Z,18.40
2022-08-11T00:14:45.720Z,18.40
2022-08-11T00:17:14.575Z,18.30
2022-08-11T00:20:12.349Z,18.30
2022-08-11T00:22:37.313Z,18.20
2022-08-11T00:25:12.934Z,18.20
2022-08-11T00:27:40.804Z,18.10
2022-08-11T00:30:09.537Z,18.00
2022-08-11T00:32:41.928Z,17.80
2022-08-11T00:35:55.152Z,17.80
2022-08-11T00:38:01.211Z,17.80
2022-08-11T00:40:39.377Z,17.90
2022-08-11T00:43:32.952Z,17.80
2022-08-11T00:46:10.799Z,17.80
2022-08-11T00:48:46.156Z,17.70
2022-08-11T00:52:03.863Z,17.70
2022-08-11T00:54:39.188Z,17.70
2022-08-11T00:57:36.819Z,17.70
2022-08-11T01:00:10.726Z,17.70
2022-08-11T01:03:10.500Z,17.70
2022-08-11T01:06:08.478Z,17.70
2022-08-11T01:08:55.378Z,17.70
2022-08-11T01:11:56.060Z,17.70
2022-08-11T01:14:41.767Z,17.80
2022-08-11T01:17:26.724Z,17.80
2022-08-11T01:20:47.083Z,17.80
2022-08-11T01:23:31.303Z,17.70
2022-08-11T01:26:34.358Z,17.70
2022-08-11T01:29:35.472Z,17.70
2022-08-11T01:32:37.132Z,17.70
2022-08-11T01:35:21.146Z,17.70
2022-08-11T01:38:12.995Z,17.70
2022-08-11T01:41:15.034Z,17.60
2022-08-11T01:44:31.182Z,17.60
2022-08-11T01:47:53.324Z,17.40
2022-08-11T01:50:46.423Z,17.30
2022-08-11T01:53:21.950Z,17.20
2022-08-11T01:56:00.750Z,17.30
2022-08-11T01:59:00.044Z,17.30
2022-08-11T02:01:52.319Z,17.30
2022-08-11T02:04:50.889Z,17.30
2022-08-11T02:07:26.813Z,17.30
2022-08-11T02:10:54.153Z,17.30
2022-08-11T02:13:52.088Z,17.30
2022-08-11T02:16:50.983Z,17.20
2022-08-11T02:19:36.445Z,17.20
2022-08-11T02:22:40.321Z,17.20
2022-08-11T02:25:17.662Z,17.10
2022-08-11T02:27:54.035Z,17.10
2022-08-11T02:30:25.862Z,17.10
2022-08-11T02:33:24.289Z,17.00
2022-08-11T02:36:19.662Z,16.90
2022-08-11T02:39:09.907Z,16.90
2022-08-11T02:42:32.742Z,16.90
2022-08-11T02:45:12.160Z,16.90
2022-08-11T02:48:25.684Z,16.90
2022-08-11T02:51:11.085Z,16.80
2022-08-11T02:53:56.481Z,16.80
2022-08-11T02:56:44.429Z,16.70
2022-08-11T02:59:45.011Z,16.70
2022-08-11T03:02:27.855Z,16.60
2022-08-11T03:05:17.422Z,16.50
2022-08-11T03:08:22.766Z,16.50
2022-08-11T03:11:26.411Z,16.40
2022-08-11T03:14:11.759Z,16.40
2022-08-11T03:16:52.418Z,16.30
2022-08-11T03:19:36.006Z,16.30
2022-08-11T03:22:32.967Z,16.30
2022-08-11T03:25:15.648Z,16.20
2022-08-11T03:27:51.474Z,16.00
2022-08-11T03:30:27.530Z,16.10
2022-08-11T03:33:31.770Z,16.10
2022-08-11T03:36:05.972Z,16.00
2022-08-11T03:38:45.549Z,16.00
2022-08-11T03:42:02.464Z,15.90
2022-08-11T03:45:15.360Z,16.00
2022-08-11T03:47:52.572Z,15.90
2022-08-11T03:50:24.676Z,15.90
2022-08-11T03:53:16.299Z,15.90
2022-08-11T03:56:04.032Z,15.80
2022-08-11T03:58:55.395Z,15.80
2022-08-11T04:01:59.791Z,15.70
2022-08-11T04:05:03.233Z,15.60
2022-08-11T04:08:20.397Z,15.60
2022-08-11T04:11:20.994Z,15.60
2022-08-11T04:14:41.267Z,15.50
2022-08-11T04:17:44.958Z,15.50
2022-08-11T04:20:41.284Z,15.60
2022-08-11T04:24:33.154Z,15.60
2022-08-11T04:26:48.154Z,15.70
2022-08-11T04:29:36.389Z,15.60
2022-08-11T04:32:59.256Z,15.70
2022-08-11T04:35:52.631Z,15.70
2022-08-11T04:38:19.193Z,15.70
2022-08-11T04:41:20.248Z,15.60
2022-08-11T04:44:02.394Z,15.50
2022-08-11T04:47:10.807Z,15.50
2022-08-11T04:50:15.173Z,15.40
2022-08-11T04:53:06.285Z,15.40
2022-08-11T04:56:04.074Z,15.40
2022-08-11T04:58:55.309Z,15.40
2022-08-11T05:01:59.992Z,15.30
2022-08-11T05:05:22.229Z,15.40
2022-08-11T05:07:53.553Z,15.30
2022-08-11T05:10:25.847Z,15.30
2022-08-11T05:13:21.406Z,15.30
2022-08-11T05:16:12.628Z,15.30
2022-08-11T05:19:09.521Z,15.30
2022-08-11T05:21:57.896Z,15.40
2022-08-11T05:25:10.001Z,15.40
2022-08-11T05:28:04.290Z,15.50
2022-08-11T05:30:50.835Z,15.60
2022-08-11T05:33:43.918Z,15.70
2022-08-11T05:36:31.055Z,15.80
2022-08-11T05:39:21.155Z,15.90
2022-08-11T05:42:30.357Z,16.20
2022-08-11T05:46:03.505Z,16.30
2022-08-11T05:48:55.032Z,16.30
2022-08-11T05:51:54.972Z,16.30
2022-08-11T05:54:46.064Z,16.40
2022-08-11T05:57:50.396Z,16.50
2022-08-11T06:00:10.721Z,16.50
2022-08-11T06:02:46.680Z,16.60
2022-08-11T06:05:14.210Z,16.50
2022-08-11T06:07:48.654Z,16.60
2022-08-11T06:10:36.720Z,16.70
2022-08-11T06:13:06.520Z,16.70
2022-08-11T06:15:43.482Z,16.80
2022-08-11T06:18:12.263Z,16.90
2022-08-11T06:20:50.196Z,17.00
2022-08-11T06:23:22.971Z,17.20
2022-08-11T06:25:52.054Z,17.30
2022-08-11T06:28:21.340Z,17.30
2022-08-11T06:30:49.003Z,17.40
2022-08-11T06:33:30.336Z,17.50
2022-08-11T06:36:28.179Z,17.60
2022-08-11T06:39:07.172Z,17.70
2022-08-11T06:41:48.379Z,17.90
2022-08-11T06:44:16.534Z,18.00
2022-08-11T06:46:51.972Z,18.00
2022-08-11T06:49:40.107Z,18.10
2022-08-11T06:52:35.351Z,18.20
2022-08-11T06:55:57.116Z,18.30
2022-08-11T06:58:41.374Z,18.40
2022-08-11T07:01:13.186Z,18.50
2022-08-11T07:03:45.306Z,18.60
2022-08-11T07:06:50.560Z,18.60
2022-08-11T07:10:19.876Z,18.70
2022-08-11T07:13:09.274Z,18.70
2022-08-11T07:16:12.694Z,18.80
2022-08-11T07:19:00.303Z,18.90
2022-08-11T07:22:02.261Z,18.90
2022-08-11T07:24:59.135Z,19.00
2022-08-11T07:27:55.659Z,19.00
2022-08-11T07:30:24.636Z,19.10
2022-08-11T07:32:54.932Z,19.10
2022-08-11T07:35:29.460Z,19.30
2022-08-11T07:38:01.596Z,19.30
2022-08-11T07:40:29.913Z,19.30
2022-08-11T07:42:59.055Z,19.40
2022-08-11T07:45:45.768Z,19.50
2022-08-11T07:48:33.336Z,19.50
2022-08-11T07:51:19.849Z,19.60
2022-08-11T07:54:03.040Z,19.70
2022-08-11T07:56:55.627Z,19.80
2022-08-11T08:00:00.367Z,19.80
2022-08-11T08:02:49.782Z,20.00
2022-08-11T08:05:36.558Z,20.00
2022-08-11T08:08:23.045Z,20.10
2022-08-11T08:11:08.748Z,20.10
2022-08-11T08:13:55.901Z,20.20
2022-08-11T08:16:41.714Z,20.30
2022-08-11T08:19:13.356Z,20.30
2022-08-11T08:21:40.491Z,20.40
2022-08-11T08:24:12.723Z,20.50
2022-08-11T08:26:58.791Z,20.60
2022-08-11T08:29:50.835Z,20.60
2022-08-11T08:32:19.438Z,20.70
2022-08-11T08:34:47.493Z,20.80
2022-08-11T08:37:45.282Z,20.80
2022-08-11T08:40:02.611Z,20.90
2022-08-11T08:42:31.667Z,21.00
2022-08-11T08:45:10.696Z,21.00
2022-08-11T08:47:43.270Z,21.10
2022-08-11T08:50:19.594Z,21.20
2022-08-11T08:52:53.502Z,21.30
2022-08-11T08:55:21.524Z,21.30
2022-08-11T08:57:50.489Z,21.50
2022-08-11T09:00:22.964Z,21.50
2022-08-11T09:02:51.755Z,21.50
2022-08-11T09:05:19.620Z,21.60
2022-08-11T09:07:51.230Z,21.70
2022-08-11T09:10:20.419Z,21.80
2022-08-11T09:12:48.834Z,21.80
2022-08-11T09:15:19.769Z,21.90
2022-08-11T09:18:03.786Z,22.00
2022-08-11T09:20:34.196Z,22.10
2022-08-11T09:24:26.385Z,22.10
2022-08-11T09:26:30.579Z,22.20
2022-08-11T09:28:59.188Z,22.20
2022-08-11T09:31:26.890Z,22.30
2022-08-11T09:33:55.323Z,22.40
2022-08-11T09:36:41.292Z,22.50
2022-08-11T09:39:28.069Z,22.60
2022-08-11T09:42:03.111Z,22.70
2022-08-11T09:44:52.706Z,22.70
2022-08-11T09:47:29.068Z,22.80
2022-08-11T09:50:01.560Z,22.90
2022-08-11T09:52:35.690Z,23.00
2022-08-11T09:55:06.172Z,23.10
2022-08-11T09:57:51.473Z,23.10
2022-08-11T10:00:18.225Z,23.20
2022-08-11T10:02:49.712Z,23.30
2022-08-11T10:05:37.561Z,23.30
2022-08-11T10:08:07.331Z,23.40
2022-08-11T10:10:39.260Z,23.50
2022-08-11T10:14:31.647Z,23.60
2022-08-11T10:16:16.347Z,23.70
2022-08-11T10:18:53.818Z,23.70
2022-08-11T10:21:42.373Z,23.80
2022-08-11T10:24:30.783Z,23.80
2022-08-11T10:27:03.294Z,23.90
2022-08-11T10:30:00.087Z,24.00
2022-08-11T10:32:58.831Z,24.10
2022-08-11T10:35:32.919Z,24.10
2022-08-11T10:38:15.685Z,24.20
2022-08-11T10:40:46.779Z,24.30
2022-08-11T10:44:01.935Z,24.40
2022-08-11T10:46:30.284Z,24.50
2022-08-11T10:48:59.080Z,24.50
2022-08-11T10:51:50.842Z,24.60
2022-08-11T10:54:39.276Z,24.70
2022-08-11T10:57:24.935Z,24.80
2022-08-11T10:59:56.024Z,24.80
2022-08-11T11:02:23.688Z,24.90
2022-08-11T11:04:59.539Z,25.00
2022-08-11T11:07:47.588Z,25.00
2022-08-11T11:10:14.498Z,25.00
2022-08-11T11:13:05.972Z,25.10
2022-08-11T11:15:54.734Z,25.20
2022-08-11T11:18:25.137Z,25.30
2022-08-11T11:20:57.745Z,25.30
2022-08-11T11:23:40.367Z,25.40
2022-08-11T11:26:35.722Z,25.40
2022-08-11T11:29:10.798Z,25.40
2022-08-11T11:32:11.549Z,25.40
2022-08-11T11:34:58.238Z,25.50
2022-08-11T11:37:25.802Z,25.60
2022-08-11T11:39:55.007Z,25.60
2022-08-11T11:42:22.713Z,25.60
2022-08-11T11:44:53.022Z,25.70
2022-08-11T11:47:23.697Z,25.70
2022-08-11T11:49:50.775Z,25.80
2022-08-11T11:52:21.280Z,25.90
2022-08-11T11:54:57.900Z,25.90
2022-08-11T11:57:59.102Z,26.00
2022-08-11T12:00:49.007Z,26.00
2022-08-11T12:03:16.624Z,26.00
2022-08-11T12:05:44.155Z,26.10
2022-08-11T12:08:21.584Z,26.10
2022-08-11T12:11:13.106Z,26.20
2022-08-11T12:13:42.044Z,26.30
2022-08-11T12:16:34.024Z,26.30
2022-08-11T12:19:00.251Z,26.30
2022-08-11T12:21:28.830Z,26.40
2022-08-11T12:24:16.877Z,26.50
2022-08-11T12:27:14.722Z,26.50
2022-08-11T12:29:41.470Z,26.50
2022-08-11T12:32:11.742Z,26.50
2022-08-11T12:34:38.540Z,26.60
2022-08-11T12:37:10.758Z,26.60
2022-08-11T12:40:42.956Z,26.60
2022-08-11T12:43:38.489Z,26.70
2022-08-11T12:46:14.171Z,26.70
2022-08-11T12:49:05.919Z,26.80
2022-08-11T12:52:01.510Z,26.80
2022-08-11T12:55:34.683Z,26.90
2022-08-11T12:58:17.449Z,27.00
2022-08-11T13:01:04.614Z,27.00
2022-08-11T13:04:01.473Z,27.10
2022-08-11T13:06:28.866Z,27.10
2022-08-11T13:09:01.050Z,27.20
2022-08-11T13:11:56.632Z,27.30
2022-08-11T13:14:26.306Z,27.30
2022-08-11T13:17:12.199Z,27.30
2022-08-11T13:19:42.626Z,27.40
2022-08-11T13:22:11.808Z,27.40
2022-08-11T13:24:40.179Z,27.40
2022-08-11T13:27:07.386Z,27.40
2022-08-11T13:29:35.992Z,27.50
2022-08-11T13:32:03.404Z,27.50
2022-08-11T13:34:31.530Z,27.50
2022-08-11T13:37:00.985Z,27.60
2022-08-11T13:39:31.200Z,27.60
2022-08-11T13:42:00.150Z,27.60
2022-08-11T13:44:31.289Z,27.60
2022-08-11T13:47:01.706Z,27.70
2022-08-11T13:49:31.334Z,27.70
2022-08-11T13:51:59.531Z,27.80
2022-08-11T13:54:30.154Z,27.80
2022-08-11T13:57:01.720Z,27.90
2022-08-11T13:59:31.165Z,27.90
2022-08-11T14:02:22.167Z,27.90
2022-08-11T14:04:57.103Z,28.00
2022-08-11T14:07:36.509Z,28.00
2022-08-11T14:10:08.874Z,28.10
2022-08-11T14:12:56.339Z,28.10
2022-08-11T14:15:33.345Z,28.10
2022-08-11T14:18:17.397Z,28.10
2022-08-11T14:21:05.932Z,28.10
2022-08-11T14:23:45.611Z,28.00
2022-08-11T14:26:24.099Z,28.00
2022-08-11T14:29:00.560Z,28.10
2022-08-11T14:31:29.513Z,28.20
2022-08-11T14:34:02.029Z,28.20
2022-08-11T14:36:35.245Z,28.20
2022-08-11T14:39:07.161Z,28.20
2022-08-11T14:42:10.736Z,28.30
2022-08-11T14:45:01.268Z,28.30
2022-08-11T14:47:29.785Z,28.40
2022-08-11T14:50:09.637Z,28.40
2022-08-11T14:52:56.437Z,28.40
2022-08-11T14:55:44.215Z,28.30
2022-08-11T14:58:17.346Z,28.40
2022-08-11T15:00:44.574Z,28.30
2022-08-11T15:03:14.201Z,28.30
2022-08-11T15:05:57.398Z,28.30
2022-08-11T15:09:08.700Z,28.30
2022-08-11T15:11:54.590Z,28.30
2022-08-11T15:14:39.934Z,28.20
2022-08-11T15:17:09.687Z,28.30
2022-08-11T15:20:00.390Z,28.30
2022-08-11T15:22:46.301Z,28.30
2022-08-11T15:25:13.334Z,28.30
2022-08-11T15:28:00.814Z,28.30
2022-08-11T15:30:46.508Z,28.20
2022-08-11T15:33:35.611Z,28.20
2022-08-11T15:36:25.340Z,28.20
2022-08-11T15:38:59.626Z,28.10
2022-08-11T15:42:00.510Z,28.10
2022-08-11T15:45:03.568Z,28.10
2022-08-11T15:47:39.270Z,28.10
2022-08-11T15:50:15.470Z,28.20
2022-08-11T15:52:59.228Z,28.20
2022-08-11T15:55:28.632Z,28.20
2022-08-11T15:58:16.375Z,28.10
2022-08-11T16:01:09.212Z,28.10
2022-08-11T16:04:07.473Z,28.10
2022-08-11T16:06:47.841Z,28.10
2022-08-11T16:09:21.420Z,28.00
2022-08-11T16:11:49.649Z,28.00
2022-08-11T16:14:37.490Z,28.00
2022-08-11T16:17:07.577Z,28.00
2022-08-11T16:19:46.638Z,28.00
2022-08-11T16:22:17.621Z,28.00
2022-08-11T16:27:02.680Z,28.00
2022-08-11T16:27:40.277Z,27.90
2022-08-11T16:30:08.632Z,28.00
2022-08-11T16:32:39.419Z,28.00
2022-08-11T16:35:40.070Z,28.00
2022-08-11T16:38:27.181Z,28.00
2022-08-11T16:40:56.035Z,27.90
2022-08-11T16:43:44.454Z,27.90
2022-08-11T16:46:32.608Z,27.90
2022-08-11T16:49:01.699Z,27.80
2022-08-11T16:51:28.724Z,27.80
2022-08-11T16:54:05.170Z,27.80
2022-08-11T16:56:51.907Z,27.70
2022-08-11T16:59:33.202Z,27.70
2022-08-11T17:02:05.184Z,27.70
2022-08-11T17:05:03.837Z,27.70
2022-08-11T17:07:50.262Z,27.70
2022-08-11T17:10:53.381Z,27.70
2022-08-11T17:13:29.247Z,27.60
2022-08-11T17:16:11.810Z,27.50
2022-08-11T17:18:46.603Z,27.50
2022-08-11T17:21:26.615Z,27.50
2022-08-11T17:24:10.239Z,27.50
2022-08-11T17:26:59.097Z,27.50
2022-08-11T17:29:54.401Z,27.40
2022-08-11T17:32:56.981Z,27.40
2022-08-11T17:35:32.503Z,27.30
2022-08-11T17:38:01.213Z,27.30
2022-08-11T17:40:29.138Z,27.30
2022-08-11T17:43:16.129Z,27.20
2022-08-11T17:46:04.002Z,27.20
2022-08-11T17:48:47.832Z,27.20
2022-08-11T17:51:37.591Z,27.20
2022-08-11T17:54:25.893Z,27.10
2022-08-11T17:57:21.146Z,27.00
2022-08-11T17:59:55.123Z,26.90
2022-08-11T18:02:52.774Z,26.90
2022-08-11T18:05:23.764Z,26.90
2022-08-11T18:08:15.940Z,26.90
2022-08-11T18:11:02.785Z,26.80
2022-08-11T18:13:51.874Z,26.80
2022-08-11T18:16:37.757Z,26.70
2022-08-11T18:19:24.324Z,26.70
2022-08-11T18:22:14.800Z,26.70
2022-08-11T18:25:08.952Z,26.70
2022-08-11T18:27:56.790Z,26.60
2022-08-11T18:30:43.543Z,26.50
2022-08-11T18:36:45.462Z,26.30
2022-08-11T18:39:33.292Z,26.30
2022-08-11T18:42:29.753Z,26.30
2022-08-11T18:45:20.464Z,26.20
2022-08-11T18:48:11.684Z,26.20
2022-08-11T18:51:29.989Z,26.10
2022-08-11T18:54:11.079Z,26.00
2022-08-11T18:56:56.519Z,25.90
2022-08-11T18:59:45.153Z,25.90
2022-08-11T19:02:49.612Z,25.90
2022-08-11T19:06:35.542Z,25.90
2022-08-11T19:08:49.981Z,25.90
2022-08-11T19:11:43.517Z,25.90
2022-08-11T19:14:30.918Z,25.80
2022-08-11T19:17:44.491Z,25.80
2022-08-11T19:20:29.747Z,25.70
2022-08-11T19:23:16.300Z,25.80
2022-08-11T19:26:05.770Z,25.80
2022-08-11T19:28:53.016Z,25.80
2022-08-11T19:31:43.856Z,25.80
2022-08-11T19:34:34.914Z,25.80
2022-08-11T19:37:24.387Z,25.70
2022-08-11T19:40:19.731Z,25.60
2022-08-11T19:43:11.236Z,25.60
2022-08-11T19:46:12.295Z,25.50
2022-08-11T19:48:59.893Z,25.40
2022-08-11T19:51:47.056Z,25.10
2022-08-11T19:54:41.934Z,25.10
2022-08-11T19:57:28.067Z,25.00
2022-08-11T20:00:14.374Z,24.90
2022-08-11T20:02:59.761Z,24.80
2022-08-11T20:05:55.564Z,24.80
2022-08-11T20:08:48.080Z,24.60
2022-08-11T20:11:34.949Z,24.70
2022-08-11T20:14:21.624Z,24.50
2022-08-11T20:17:06.970Z,24.40
2022-08-11T20:19:57.122Z,24.20
2022-08-11T20:22:45.395Z,24.20
2022-08-11T20:25:32.913Z,24.10
2022-08-11T20:28:18.361Z,23.90
2022-08-11T20:31:04.270Z,23.80
2022-08-11T20:33:53.892Z,23.70
2022-08-11T20:36:39.658Z,23.40
2022-08-11T20:39:25.715Z,23.30
2022-08-11T20:42:12.392Z,23.20
2022-08-11T20:44:59.781Z,23.10
2022-08-11T20:47:59.861Z,23.00
2022-08-11T20:50:47.860Z,22.90
2022-08-11T20:53:39.200Z,22.80
2022-08-11T20:56:28.497Z,22.70
2022-08-11T20:59:18.746Z,22.70
2022-08-11T21:02:09.825Z,22.60
2022-08-11T21:05:00.250Z,22.60
2022-08-11T21:07:57.072Z,22.50
2022-08-11T21:10:51.988Z,22.50
2022-08-11T21:13:41.255Z,22.60
2022-08-11T21:16:28.381Z,22.50
2022-08-11T21:20:00.417Z,22.50
2022-08-11T21:22:38.796Z,22.50
2022-08-11T21:25:30.859Z,22.40
2022-08-11T21:28:22.019Z,22.30
2022-08-11T21:31:09.237Z,22.30
2022-08-11T21:33:57.016Z,22.30
2022-08-11T21:36:43.675Z,22.20
2022-08-11T21:39:31.703Z,22.20
2022-08-11T21:42:17.845Z,22.10
2022-08-11T21:45:04.444Z,22.10
2022-08-11T21:48:01.034Z,22.00
2022-08-11T21:50:47.408Z,21.80
2022-08-11T21:53:34.402Z,21.60
2022-08-11T21:56:21.983Z,21.50
2022-08-11T21:59:13.130Z,21.40
2022-08-11T22:01:58.547Z,21.20
2022-08-11T22:04:44.411Z,21.20
2022-08-11T22:07:30.203Z,21.00
2022-08-11T22:10:41.464Z,20.90
2022-08-11T22:13:24.094Z,21.00
2022-08-11T22:16:09.433Z,21.10
2022-08-11T22:18:55.744Z,21.10
2022-08-11T22:22:03.293Z,21.10
2022-08-11T22:24:50.006Z,21.10
2022-08-11T22:27:35.308Z,21.10
2022-08-11T22:30:21.002Z,21.00
2022-08-11T22:33:06.649Z,20.90
2022-08-11T22:35:53.892Z,20.90
2022-08-11T22:38:40.668Z,20.90
2022-08-11T22:41:26.294Z,20.90
2022-08-11T22:44:11.887Z,20.90
2022-08-11T22:46:57.854Z,20.80
2022-08-11T22:49:57.831Z,20.90
2022-08-11T22:52:45.030Z,20.90
2022-08-11T22:55:31.892Z,20.70
2022-08-11T22:58:17.825Z,20.70
2022-08-11T23:01:04.098Z,20.60
2022-08-11T23:03:50.923Z,20.70
2022-08-11T23:06:38.289Z,20.70
2022-08-11T23:09:25.505Z,20.70
2022-08-11T23:12:12.377Z,20.70
2022-08-11T23:14:59.243Z,20.70
2022-08-11T23:17:46.484Z,20.70
2022-08-11T23:20:34.919Z,20.60
2022-08-11T23:23:27.347Z,20.60
2022-08-11T23:26:14.259Z,20.60
2022-08-11T23:29:05.044Z,20.50
2022-08-11T23:31:55.290Z,20.50
2022-08-11T23:35:04.531Z,20.50
2022-08-11T23:38:00.701Z,20.40
2022-08-11T23:40:46.106Z,20.30
2022-08-11T23:43:41.699Z,20.40
2022-08-11T23:46:27.098Z,20.30
2022-08-11T23:49:16.030Z,20.40
2022-08-11T23:52:02.620Z,20.30
2022-08-11T23:54:48.898Z,20.30
2022-08-11T23:57:34.816Z,20.30
